sensor_id;sensor_type;location;lat;lon;timestamp;pressure;altitude;pressure_sealevel;temperature;humidity
62510;BME280;48558;48.242;11.654;2023-03-01T00:01:35;96822.91;;;1.04;100.00
62510;BME280;48558;48.242;11.654;2023-03-01T00:05:48;96820.94;;;1.01;100.00
62510;BME280;48558;48.242;11.654;2023-03-01T00:10:00;96817.47;;;1.07;100.00
62510;BME280;48558;48.242;11.654;2023-03-01T00:14:13;96817.84;;;1.13;100.00
62510;BME280;48558;48.242;11.654;2023-03-01T00:18:28;96797.22;;;0.91;100.00
62510;BME280;48558;48.242;11.654;2023-03-01T00:22:40;96812.81;;;0.97;100.00
62510;BME280;48558;48.242;11.654;2023-03-01T00:26:54;96802.69;;;0.94;100.00
62510;BME280;48558;48.242;11.654;2023-03-01T00:31:11;96813.19;;;0.99;100.00
62510;BME280;48558;48.242;11.654;2023-03-01T00:35:25;96804.22;;;1.02;100.00
62510;BME280;48558;48.242;11.654;2023-03-01T00:39:37;96795.28;;;1.09;100.00
62510;BME280;48558;48.242;11.654;2023-03-01T00:43:50;96797.25;;;1.12;100.00
62510;BME280;48558;48.242;11.654;2023-03-01T00:48:03;96808.91;;;0.95;100.00
62510;BME280;48558;48.242;11.654;2023-03-01T00:52:16;96801.91;;;1.08;100.00
62510;BME280;48558;48.242;11.654;2023-03-01T00:56:29;96802.31;;;0.99;100.00
62510;BME280;48558;48.242;11.654;2023-03-01T01:00:43;96767.31;;;0.94;100.00
62510;BME280;48558;48.242;11.654;2023-03-01T01:04:55;96773.91;;;0.90;100.00
62510;BME280;48558;48.242;11.654;2023-03-01T01:09:09;96777.03;;;0.85;100.00
62510;BME280;48558;48.242;11.654;2023-03-01T01:13:40;96773.53;;;0.84;100.00
62510;BME280;48558;48.242;11.654;2023-03-01T01:17:52;96766.94;;;0.85;100.00
62510;BME280;48558;48.242;11.654;2023-03-01T01:22:05;96757.59;;;0.86;100.00
62510;BME280;48558;48.242;11.654;2023-03-01T01:26:29;96753.72;;;0.87;100.00
62510;BME280;48558;48.242;11.654;2023-03-01T01:30:43;96742.84;;;0.84;100.00
62510;BME280;48558;48.242;11.654;2023-03-01T01:34:55;96745.53;;;0.98;100.00
62510;BME280;48558;48.242;11.654;2023-03-01T01:39:08;96744.38;;;0.85;100.00
62510;BME280;48558;48.242;11.654;2023-03-01T01:43:33;96740.88;;;0.91;100.00
62510;BME280;48558;48.242;11.654;2023-03-01T01:47:47;96736.22;;;0.95;100.00
62510;BME280;48558;48.242;11.654;2023-03-01T01:52:05;96738.56;;;0.97;100.00
62510;BME280;48558;48.242;11.654;2023-03-01T01:56:22;96742.44;;;0.92;100.00
62510;BME280;48558;48.242;11.654;2023-03-01T02:00:36;96728.03;;;0.95;100.00
62510;BME280;48558;48.242;11.654;2023-03-01T02:04:54;96726.50;;;0.87;100.00
62510;BME280;48558;48.242;11.654;2023-03-01T02:09:16;96728.06;;;0.88;100.00
62510;BME280;48558;48.242;11.654;2023-03-01T02:13:32;96714.06;;;0.86;100.00
62510;BME280;48558;48.242;11.654;2023-03-01T02:17:45;96708.63;;;0.76;100.00
62510;BME280;48558;48.242;11.654;2023-03-01T02:26:54;96722.63;;;0.85;100.00
62510;BME280;48558;48.242;11.654;2023-03-01T02:31:08;96721.47;;;0.79;100.00
62510;BME280;48558;48.242;11.654;2023-03-01T02:35:41;96707.06;;;0.71;100.00
62510;BME280;48558;48.242;11.654;2023-03-01T02:40:06;96709.81;;;0.78;100.00
62510;BME280;48558;48.242;11.654;2023-03-01T02:44:23;96696.97;;;0.71;100.00
62510;BME280;48558;48.242;11.654;2023-03-01T02:48:41;96695.41;;;0.63;100.00
62510;BME280;48558;48.242;11.654;2023-03-01T02:57:38;96697.75;;;0.68;100.00
62510;BME280;48558;48.242;11.654;2023-03-01T03:01:52;96681.44;;;0.68;100.00
62510;BME280;48558;48.242;11.654;2023-03-01T03:06:05;96692.31;;;0.72;100.00
62510;BME280;48558;48.242;11.654;2023-03-01T03:10:21;96705.50;;;0.59;100.00
62510;BME280;48558;48.242;11.654;2023-03-01T03:14:36;96696.97;;;0.54;100.00
62510;BME280;48558;48.242;11.654;2023-03-01T03:18:49;96705.13;;;0.54;100.00
62510;BME280;48558;48.242;11.654;2023-03-01T03:23:01;96700.47;;;0.40;100.00
62510;BME280;48558;48.242;11.654;2023-03-01T03:27:24;96691.13;;;0.38;100.00
62510;BME280;48558;48.242;11.654;2023-03-01T03:31:36;96692.28;;;0.37;100.00
62510;BME280;48558;48.242;11.654;2023-03-01T03:35:50;96686.47;;;0.35;100.00
62510;BME280;48558;48.242;11.654;2023-03-01T03:40:03;96689.19;;;0.42;100.00
62510;BME280;48558;48.242;11.654;2023-03-01T03:44:15;96680.66;;;0.40;100.00
62510;BME280;48558;48.242;11.654;2023-03-01T03:48:28;96672.84;;;0.21;100.00
62510;BME280;48558;48.242;11.654;2023-03-01T03:52:41;96681.81;;;0.28;100.00
62510;BME280;48558;48.242;11.654;2023-03-01T03:56:54;96670.53;;;0.12;100.00
62510;BME280;48558;48.242;11.654;2023-03-01T04:01:06;96672.09;;;0.13;100.00
62510;BME280;48558;48.242;11.654;2023-03-01T04:05:18;96670.13;;;0.07;100.00
62510;BME280;48558;48.242;11.654;2023-03-01T04:09:31;96662.00;;;0.07;100.00
62510;BME280;48558;48.242;11.654;2023-03-01T04:13:57;96661.53;;;-0.17;100.00
62510;BME280;48558;48.242;11.654;2023-03-01T04:18:13;96660.72;;;-0.28;100.00
62510;BME280;48558;48.242;11.654;2023-03-01T04:22:26;96669.97;;;-0.43;100.00
62510;BME280;48558;48.242;11.654;2023-03-01T04:26:42;96661.28;;;-0.80;100.00
62510;BME280;48558;48.242;11.654;2023-03-01T04:30:56;96672.63;;;-0.64;100.00
62510;BME280;48558;48.242;11.654;2023-03-01T04:35:10;96672.50;;;-0.89;100.00
62510;BME280;48558;48.242;11.654;2023-03-01T04:39:22;96670.06;;;-1.04;100.00
62510;BME280;48558;48.242;11.654;2023-03-01T04:43:35;96666.88;;;-1.20;100.00
62510;BME280;48558;48.242;11.654;2023-03-01T04:47:48;96682.13;;;-0.95;100.00
62510;BME280;48558;48.242;11.654;2023-03-01T04:52:01;96664.22;;;-1.10;100.00
62510;BME280;48558;48.242;11.654;2023-03-01T04:56:17;96650.50;;;-1.31;100.00
62510;BME280;48558;48.242;11.654;2023-03-01T05:00:30;96655.53;;;-1.33;100.00
62510;BME280;48558;48.242;11.654;2023-03-01T05:04:43;96659.19;;;-1.11;100.00
62510;BME280;48558;48.242;11.654;2023-03-01T05:08:55;96640.50;;;-1.27;100.00
62510;BME280;48558;48.242;11.654;2023-03-01T05:13:08;96641.22;;;-1.33;100.00
62510;BME280;48558;48.242;11.654;2023-03-01T05:17:20;96642.81;;;-1.25;100.00
62510;BME280;48558;48.242;11.654;2023-03-01T05:21:43;96647.50;;;-1.22;100.00
62510;BME280;48558;48.242;11.654;2023-03-01T05:26:15;96648.69;;;-1.16;100.00
62510;BME280;48558;48.242;11.654;2023-03-01T05:30:39;96655.72;;;-1.05;100.00
62510;BME280;48558;48.242;11.654;2023-03-01T05:34:52;96625.81;;;-1.19;100.00
62510;BME280;48558;48.242;11.654;2023-03-01T05:39:06;96642.63;;;-0.92;100.00
62510;BME280;48558;48.242;11.654;2023-03-01T05:43:18;96646.94;;;-0.81;100.00
62510;BME280;48558;48.242;11.654;2023-03-01T05:47:31;96645.41;;;-0.78;100.00
62510;BME280;48558;48.242;11.654;2023-03-01T05:51:50;96653.19;;;-0.73;100.00
62510;BME280;48558;48.242;11.654;2023-03-01T05:56:04;96641.97;;;-0.64;100.00
62510;BME280;48558;48.242;11.654;2023-03-01T06:00:20;96647.84;;;-0.59;100.00
62510;BME280;48558;48.242;11.654;2023-03-01T06:04:40;96643.47;;;-0.78;100.00
62510;BME280;48558;48.242;11.654;2023-03-01T06:08:53;96643.94;;;-0.58;100.00
62510;BME280;48558;48.242;11.654;2023-03-01T06:13:07;96660.53;;;-0.74;100.00
62510;BME280;48558;48.242;11.654;2023-03-01T06:17:20;96651.72;;;-0.53;100.00
62510;BME280;48558;48.242;11.654;2023-03-01T06:21:32;96659.00;;;-0.71;100.00
62510;BME280;48558;48.242;11.654;2023-03-01T06:25:45;96657.91;;;-0.56;100.00
62510;BME280;48558;48.242;11.654;2023-03-01T06:30:12;96668.72;;;-0.63;100.00
62510;BME280;48558;48.242;11.654;2023-03-01T06:34:26;96662.63;;;-0.39;100.00
62510;BME280;48558;48.242;11.654;2023-03-01T06:38:39;96660.63;;;-0.56;100.00
62510;BME280;48558;48.242;11.654;2023-03-01T06:42:53;96667.69;;;-0.41;100.00
62510;BME280;48558;48.242;11.654;2023-03-01T06:47:06;96675.72;;;-0.62;100.00
62510;BME280;48558;48.242;11.654;2023-03-01T06:51:24;96659.91;;;-0.42;100.00
62510;BME280;48558;48.242;11.654;2023-03-01T06:55:37;96671.16;;;-0.44;100.00
62510;BME280;48558;48.242;11.654;2023-03-01T06:59:50;96661.50;;;-0.31;100.00
62510;BME280;48558;48.242;11.654;2023-03-01T07:04:03;96659.19;;;-0.22;100.00
62510;BME280;48558;48.242;11.654;2023-03-01T07:08:15;96646.75;;;-0.37;100.00
62510;BME280;48558;48.242;11.654;2023-03-01T07:12:28;96643.66;;;-0.32;100.00
62510;BME280;48558;48.242;11.654;2023-03-01T07:16:40;96652.63;;;-0.14;100.00
62510;BME280;48558;48.242;11.654;2023-03-01T07:20:53;96638.69;;;0.09;100.00
62510;BME280;48558;48.242;11.654;2023-03-01T07:25:06;96648.00;;;0.05;100.00
62510;BME280;48558;48.242;11.654;2023-03-01T07:29:18;96637.94;;;0.16;100.00
62510;BME280;48558;48.242;11.654;2023-03-01T07:33:38;96641.06;;;0.42;100.00
62510;BME280;48558;48.242;11.654;2023-03-01T07:37:50;96625.91;;;0.41;100.00
62510;BME280;48558;48.242;11.654;2023-03-01T07:42:03;96623.97;;;0.56;100.00
62510;BME280;48558;48.242;11.654;2023-03-01T07:46:16;96624.72;;;0.46;100.00
62510;BME280;48558;48.242;11.654;2023-03-01T07:50:29;96609.22;;;0.29;100.00
62510;BME280;48558;48.242;11.654;2023-03-01T07:54:43;96634.84;;;0.70;100.00
62510;BME280;48558;48.242;11.654;2023-03-01T07:58:56;96615.38;;;0.82;100.00
62510;BME280;48558;48.242;11.654;2023-03-01T08:03:11;96621.63;;;0.51;100.00
62510;BME280;48558;48.242;11.654;2023-03-01T08:07:24;96627.06;;;0.79;100.00
62510;BME280;48558;48.242;11.654;2023-03-01T08:11:36;96611.09;;;0.92;100.00
62510;BME280;48558;48.242;11.654;2023-03-01T08:15:49;96611.75;;;1.20;100.00
62510;BME280;48558;48.242;11.654;2023-03-01T08:20:03;96612.84;;;1.44;100.00
62510;BME280;48558;48.242;11.654;2023-03-01T08:24:25;96619.88;;;1.34;100.00
62510;BME280;48558;48.242;11.654;2023-03-01T08:28:38;96612.44;;;1.45;100.00
62510;BME280;48558;48.242;11.654;2023-03-01T08:32:52;96610.84;;;1.59;100.00
62510;BME280;48558;48.242;11.654;2023-03-01T08:37:04;96596.84;;;1.60;100.00
62510;BME280;48558;48.242;11.654;2023-03-01T08:41:17;96611.06;;;1.89;100.00
62510;BME280;48558;48.242;11.654;2023-03-01T08:45:31;96602.84;;;1.96;100.00
62510;BME280;48558;48.242;11.654;2023-03-01T08:49:43;96597.41;;;1.92;100.00
62510;BME280;48558;48.242;11.654;2023-03-01T08:54:09;96595.25;;;2.25;100.00
62510;BME280;48558;48.242;11.654;2023-03-01T08:58:23;96593.19;;;2.39;100.00
62510;BME280;48558;48.242;11.654;2023-03-01T09:02:35;96577.53;;;1.95;100.00
62510;BME280;48558;48.242;11.654;2023-03-01T09:06:48;96589.63;;;2.46;100.00
62510;BME280;48558;48.242;11.654;2023-03-01T09:11:02;96584.47;;;2.07;100.00
62510;BME280;48558;48.242;11.654;2023-03-01T09:15:16;96599.91;;;2.24;100.00
62510;BME280;48558;48.242;11.654;2023-03-01T09:19:29;96597.63;;;2.19;100.00
62510;BME280;48558;48.242;11.654;2023-03-01T09:23:46;96603.31;;;2.39;100.00
62510;BME280;48558;48.242;11.654;2023-03-01T09:27:59;96590.31;;;2.09;100.00
62510;BME280;48558;48.242;11.654;2023-03-01T09:32:12;96588.41;;;2.50;100.00
62510;BME280;48558;48.242;11.654;2023-03-01T09:36:24;96604.19;;;2.73;100.00
62510;BME280;48558;48.242;11.654;2023-03-01T09:40:42;96595.53;;;2.81;100.00
62510;BME280;48558;48.242;11.654;2023-03-01T09:45:05;96589.69;;;3.17;100.00
62510;BME280;48558;48.242;11.654;2023-03-01T09:49:25;96575.34;;;2.72;100.00
62510;BME280;48558;48.242;11.654;2023-03-01T09:53:40;96578.28;;;2.92;100.00
62510;BME280;48558;48.242;11.654;2023-03-01T09:57:56;96579.63;;;2.73;100.00
62510;BME280;48558;48.242;11.654;2023-03-01T10:11:31;96562.34;;;3.20;100.00
62510;BME280;48558;48.242;11.654;2023-03-01T10:16:11;96554.38;;;3.93;100.00
62510;BME280;48558;48.242;11.654;2023-03-01T10:21:02;96556.97;;;3.74;100.00
62510;BME280;48558;48.242;11.654;2023-03-01T10:25:36;96550.34;;;3.44;100.00
62510;BME280;48558;48.242;11.654;2023-03-01T10:30:13;96549.22;;;4.68;94.58
62510;BME280;48558;48.242;11.654;2023-03-01T10:34:34;96541.31;;;4.27;99.15
62510;BME280;48558;48.242;11.654;2023-03-01T10:38:56;96540.34;;;5.23;93.57
62510;BME280;48558;48.242;11.654;2023-03-01T10:43:11;96532.97;;;5.20;88.41
62510;BME280;48558;48.242;11.654;2023-03-01T10:47:27;96527.94;;;4.99;89.10
62510;BME280;48558;48.242;11.654;2023-03-01T10:51:42;96520.41;;;5.42;89.18
62510;BME280;48558;48.242;11.654;2023-03-01T11:00:22;96503.81;;;5.49;94.27
62510;BME280;48558;48.242;11.654;2023-03-01T11:04:38;96487.88;;;5.44;87.32
62510;BME280;48558;48.242;11.654;2023-03-01T11:08:51;96481.19;;;5.45;84.99
62510;BME280;48558;48.242;11.654;2023-03-01T11:17:31;96468.69;;;6.12;84.66
62510;BME280;48558;48.242;11.654;2023-03-01T11:22:07;96465.56;;;6.87;80.05
62510;BME280;48558;48.242;11.654;2023-03-01T11:26:24;96461.75;;;6.08;86.91
62510;BME280;48558;48.242;11.654;2023-03-01T11:30:43;96440.31;;;6.64;81.12
62510;BME280;48558;48.242;11.654;2023-03-01T11:35:26;96437.72;;;7.27;77.76
62510;BME280;48558;48.242;11.654;2023-03-01T11:39:53;96427.78;;;6.91;80.01
62510;BME280;48558;48.242;11.654;2023-03-01T11:44:17;96423.47;;;7.82;73.06
62510;BME280;48558;48.242;11.654;2023-03-01T12:02:41;96410.78;;;7.21;79.36
62510;BME280;48558;48.242;11.654;2023-03-01T12:07:01;96411.03;;;7.52;73.47
62510;BME280;48558;48.242;11.654;2023-03-01T12:20:58;96386.44;;;6.82;81.87
62510;BME280;48558;48.242;11.654;2023-03-01T12:39:45;96353.53;;;9.04;67.07
62510;BME280;48558;48.242;11.654;2023-03-01T12:53:39;96354.94;;;9.08;65.77
62510;BME280;48558;48.242;11.654;2023-03-01T13:07:44;96363.94;;;8.56;74.21
62510;BME280;48558;48.242;11.654;2023-03-01T13:12:00;96366.47;;;8.17;73.32
62510;BME280;48558;48.242;11.654;2023-03-01T13:25:24;96351.06;;;8.32;72.71
62510;BME280;48558;48.242;11.654;2023-03-01T13:29:59;96356.94;;;8.09;68.64
62510;BME280;48558;48.242;11.654;2023-03-01T13:34:41;96341.69;;;9.25;70.61
62510;BME280;48558;48.242;11.654;2023-03-01T13:38:56;96339.94;;;8.57;68.40
62510;BME280;48558;48.242;11.654;2023-03-01T13:43:28;96323.34;;;7.79;72.82
62510;BME280;48558;48.242;11.654;2023-03-01T13:47:45;96323.09;;;9.47;68.69
62510;BME280;48558;48.242;11.654;2023-03-01T13:52:01;96321.56;;;9.55;67.72
62510;BME280;48558;48.242;11.654;2023-03-01T13:56:33;96334.44;;;10.61;63.84
62510;BME280;48558;48.242;11.654;2023-03-01T14:00:55;96318.50;;;10.47;62.47
62510;BME280;48558;48.242;11.654;2023-03-01T14:05:09;96319.53;;;9.07;68.73
62510;BME280;48558;48.242;11.654;2023-03-01T14:09:27;96319.09;;;9.48;66.81
62510;BME280;48558;48.242;11.654;2023-03-01T14:18:48;96306.47;;;8.68;66.28
62510;BME280;48558;48.242;11.654;2023-03-01T14:23:12;96309.63;;;9.49;63.93
62510;BME280;48558;48.242;11.654;2023-03-01T14:27:32;96301.28;;;8.70;70.24
62510;BME280;48558;48.242;11.654;2023-03-01T14:31:47;96293.44;;;9.29;65.58
62510;BME280;48558;48.242;11.654;2023-03-01T14:36:06;96281.47;;;9.23;66.34
62510;BME280;48558;48.242;11.654;2023-03-01T14:40:27;96277.44;;;8.76;69.95
62510;BME280;48558;48.242;11.654;2023-03-01T14:44:43;96284.47;;;9.38;68.01
62510;BME280;48558;48.242;11.654;2023-03-01T14:49:03;96274.47;;;9.31;67.28
62510;BME280;48558;48.242;11.654;2023-03-01T14:53:28;96272.94;;;8.38;73.70
62510;BME280;48558;48.242;11.654;2023-03-01T14:57:53;96258.75;;;7.84;81.00
62510;BME280;48558;48.242;11.654;2023-03-01T15:02:13;96259.63;;;7.81;84.22
62510;BME280;48558;48.242;11.654;2023-03-01T15:06:34;96246.34;;;7.67;86.88
62510;BME280;48558;48.242;11.654;2023-03-01T15:19:41;96264.72;;;7.23;90.63
62510;BME280;48558;48.242;11.654;2023-03-01T15:23:58;96273.63;;;7.14;93.97
62510;BME280;48558;48.242;11.654;2023-03-01T15:28:34;96258.66;;;7.15;97.37
62510;BME280;48558;48.242;11.654;2023-03-01T15:37:45;96248.47;;;6.91;100.00
62510;BME280;48558;48.242;11.654;2023-03-01T15:41:59;96243.97;;;6.84;100.00
62510;BME280;48558;48.242;11.654;2023-03-01T15:50:35;96242.31;;;6.87;100.00
62510;BME280;48558;48.242;11.654;2023-03-01T15:55:04;96242.19;;;6.78;100.00
62510;BME280;48558;48.242;11.654;2023-03-01T15:59:18;96248.22;;;6.73;100.00
62510;BME280;48558;48.242;11.654;2023-03-01T16:03:31;96245.94;;;6.71;100.00
62510;BME280;48558;48.242;11.654;2023-03-01T16:07:43;96242.16;;;6.40;100.00
62510;BME280;48558;48.242;11.654;2023-03-01T16:11:56;96248.00;;;6.42;100.00
62510;BME280;48558;48.242;11.654;2023-03-01T16:16:13;96240.38;;;6.33;100.00
62510;BME280;48558;48.242;11.654;2023-03-01T16:20:29;96235.53;;;6.25;100.00
62510;BME280;48558;48.242;11.654;2023-03-01T16:24:44;96235.78;;;6.02;100.00
62510;BME280;48558;48.242;11.654;2023-03-01T16:28:57;96234.13;;;5.92;100.00
62510;BME280;48558;48.242;11.654;2023-03-01T16:33:10;96246.56;;;5.80;100.00
62510;BME280;48558;48.242;11.654;2023-03-01T16:37:43;96241.91;;;5.48;100.00
62510;BME280;48558;48.242;11.654;2023-03-01T16:41:56;96240.91;;;5.26;100.00
62510;BME280;48558;48.242;11.654;2023-03-01T16:46:34;96239.81;;;5.24;100.00
62510;BME280;48558;48.242;11.654;2023-03-01T16:51:00;96240.31;;;5.19;100.00
62510;BME280;48558;48.242;11.654;2023-03-01T16:55:13;96231.84;;;4.81;100.00
62510;BME280;48558;48.242;11.654;2023-03-01T16:59:25;96250.81;;;4.72;100.00
62510;BME280;48558;48.242;11.654;2023-03-01T17:03:38;96253.25;;;4.50;100.00
62510;BME280;48558;48.242;11.654;2023-03-01T17:07:51;96265.19;;;4.40;100.00
62510;BME280;48558;48.242;11.654;2023-03-01T17:12:07;96272.56;;;4.23;100.00
62510;BME280;48558;48.242;11.654;2023-03-01T17:16:20;96279.97;;;4.07;100.00
62510;BME280;48558;48.242;11.654;2023-03-01T17:20:33;96279.66;;;4.21;100.00
62510;BME280;48558;48.242;11.654;2023-03-01T17:24:46;96287.72;;;3.89;100.00
62510;BME280;48558;48.242;11.654;2023-03-01T17:28:58;96279.88;;;3.91;100.00
62510;BME280;48558;48.242;11.654;2023-03-01T17:33:11;96288.47;;;3.89;100.00
62510;BME280;48558;48.242;11.654;2023-03-01T17:37:23;96281.41;;;3.72;100.00
62510;BME280;48558;48.242;11.654;2023-03-01T17:41:36;96288.38;;;4.16;100.00
62510;BME280;48558;48.242;11.654;2023-03-01T17:45:48;96288.94;;;4.27;100.00
62510;BME280;48558;48.242;11.654;2023-03-01T17:50:03;96282.03;;;4.19;100.00
62510;BME280;48558;48.242;11.654;2023-03-01T17:54:17;96293.84;;;4.16;100.00
62510;BME280;48558;48.242;11.654;2023-03-01T17:58:30;96302.78;;;4.16;100.00
62510;BME280;48558;48.242;11.654;2023-03-01T18:02:43;96303.44;;;4.04;100.00
62510;BME280;48558;48.242;11.654;2023-03-01T18:06:56;96293.56;;;3.68;100.00
62510;BME280;48558;48.242;11.654;2023-03-01T18:11:21;96308.56;;;3.36;100.00
62510;BME280;48558;48.242;11.654;2023-03-01T18:15:34;96307.19;;;3.25;100.00
62510;BME280;48558;48.242;11.654;2023-03-01T18:19:48;96311.53;;;3.22;100.00
62510;BME280;48558;48.242;11.654;2023-03-01T18:24:00;96315.41;;;3.48;100.00
62510;BME280;48558;48.242;11.654;2023-03-01T18:28:13;96315.41;;;3.48;100.00
62510;BME280;48558;48.242;11.654;2023-03-01T18:32:25;96297.56;;;3.40;100.00
62510;BME280;48558;48.242;11.654;2023-03-01T18:36:40;96307.22;;;3.21;100.00
62510;BME280;48558;48.242;11.654;2023-03-01T18:41:06;96279.91;;;2.71;100.00
62510;BME280;48558;48.242;11.654;2023-03-01T18:45:18;96290.34;;;3.03;100.00
62510;BME280;48558;48.242;11.654;2023-03-01T18:49:31;96288.63;;;2.89;100.00
62510;BME280;48558;48.242;11.654;2023-03-01T18:53:44;96290.06;;;3.67;100.00
62510;BME280;48558;48.242;11.654;2023-03-01T18:57:57;96297.22;;;3.61;100.00
62510;BME280;48558;48.242;11.654;2023-03-01T19:02:10;96284.31;;;3.15;100.00
62510;BME280;48558;48.242;11.654;2023-03-01T19:06:28;96295.06;;;3.03;100.00
62510;BME280;48558;48.242;11.654;2023-03-01T19:10:43;96287.59;;;3.07;100.00
62510;BME280;48558;48.242;11.654;2023-03-01T19:14:55;96291.25;;;2.70;100.00
62510;BME280;48558;48.242;11.654;2023-03-01T19:19:13;96296.53;;;2.54;100.00
62510;BME280;48558;48.242;11.654;2023-03-01T19:23:31;96297.28;;;2.84;100.00
62510;BME280;48558;48.242;11.654;2023-03-01T19:27:47;96283.47;;;2.95;100.00
62510;BME280;48558;48.242;11.654;2023-03-01T19:32:00;96290.59;;;3.12;100.00
62510;BME280;48558;48.242;11.654;2023-03-01T19:36:13;96305.38;;;3.15;100.00
62510;BME280;48558;48.242;11.654;2023-03-01T19:40:26;96301.34;;;3.00;100.00
62510;BME280;48558;48.242;11.654;2023-03-01T19:44:38;96304.34;;;2.82;100.00
62510;BME280;48558;48.242;11.654;2023-03-01T19:48:52;96308.31;;;2.77;100.00
62510;BME280;48558;48.242;11.654;2023-03-01T19:53:05;96291.09;;;2.54;100.00
62510;BME280;48558;48.242;11.654;2023-03-01T19:57:17;96296.25;;;2.48;100.00
62510;BME280;48558;48.242;11.654;2023-03-01T20:01:32;96299.63;;;2.56;100.00
62510;BME280;48558;48.242;11.654;2023-03-01T20:05:46;96297.41;;;2.47;100.00
62510;BME280;48558;48.242;11.654;2023-03-01T20:09:59;96308.41;;;2.10;100.00
62510;BME280;48558;48.242;11.654;2023-03-01T20:14:11;96308.44;;;2.06;100.00
62510;BME280;48558;48.242;11.654;2023-03-01T20:18:24;96298.53;;;1.89;100.00
62510;BME280;48558;48.242;11.654;2023-03-01T20:22:38;96303.69;;;1.80;100.00
62510;BME280;48558;48.242;11.654;2023-03-01T20:26:51;96296.56;;;1.90;100.00
62510;BME280;48558;48.242;11.654;2023-03-01T20:31:05;96282.47;;;1.95;100.00
62510;BME280;48558;48.242;11.654;2023-03-01T20:35:19;96279.09;;;1.84;100.00
62510;BME280;48558;48.242;11.654;2023-03-01T20:39:33;96286.38;;;1.60;100.00
62510;BME280;48558;48.242;11.654;2023-03-01T20:43:46;96285.25;;;1.58;100.00
62510;BME280;48558;48.242;11.654;2023-03-01T20:48:08;96275.00;;;1.69;100.00
62510;BME280;48558;48.242;11.654;2023-03-01T20:52:20;96287.78;;;2.09;100.00
62510;BME280;48558;48.242;11.654;2023-03-01T20:56:33;96278.22;;;1.94;100.00
62510;BME280;48558;48.242;11.654;2023-03-01T21:00:49;96281.69;;;1.98;100.00
62510;BME280;48558;48.242;11.654;2023-03-01T21:05:13;96276.31;;;1.91;100.00
62510;BME280;48558;48.242;11.654;2023-03-01T21:09:25;96279.75;;;1.61;100.00
62510;BME280;48558;48.242;11.654;2023-03-01T21:13:48;96266.69;;;1.45;100.00
62510;BME280;48558;48.242;11.654;2023-03-01T21:18:00;96279.44;;;1.56;100.00
62510;BME280;48558;48.242;11.654;2023-03-01T21:22:14;96276.53;;;1.70;100.00
62510;BME280;48558;48.242;11.654;2023-03-01T21:26:27;96272.41;;;1.55;100.00
62510;BME280;48558;48.242;11.654;2023-03-01T21:30:39;96263.25;;;1.38;100.00
62510;BME280;48558;48.242;11.654;2023-03-01T21:34:52;96264.31;;;1.48;100.00
62510;BME280;48558;48.242;11.654;2023-03-01T21:39:14;96264.38;;;1.40;100.00
62510;BME280;48558;48.242;11.654;2023-03-01T21:43:38;96271.44;;;1.34;100.00
62510;BME280;48558;48.242;11.654;2023-03-01T21:47:52;96259.72;;;1.41;100.00
62510;BME280;48558;48.242;11.654;2023-03-01T21:52:05;96248.50;;;1.35;100.00
62510;BME280;48558;48.242;11.654;2023-03-01T21:56:19;96240.97;;;1.50;100.00
62510;BME280;48558;48.242;11.654;2023-03-01T22:00:34;96244.34;;;1.61;100.00
62510;BME280;48558;48.242;11.654;2023-03-01T22:04:52;96257.22;;;1.57;100.00
62510;BME280;48558;48.242;11.654;2023-03-01T22:09:14;96265.66;;;1.32;100.00
62510;BME280;48558;48.242;11.654;2023-03-01T22:13:29;96250.63;;;1.17;100.00
62510;BME280;48558;48.242;11.654;2023-03-01T22:17:41;96251.00;;;1.16;100.00
62510;BME280;48558;48.242;11.654;2023-03-01T22:21:55;96239.44;;;1.05;100.00
62510;BME280;48558;48.242;11.654;2023-03-01T22:26:20;96247.91;;;1.17;100.00
62510;BME280;48558;48.242;11.654;2023-03-01T22:30:34;96248.34;;;1.09;100.00
62510;BME280;48558;48.242;11.654;2023-03-01T22:34:53;96236.66;;;1.12;100.00
62510;BME280;48558;48.242;11.654;2023-03-01T22:39:06;96229.41;;;0.98;100.00
62510;BME280;48558;48.242;11.654;2023-03-01T22:43:18;96225.47;;;1.06;100.00
62510;BME280;48558;48.242;11.654;2023-03-01T22:47:35;96228.63;;;1.01;100.00
62510;BME280;48558;48.242;11.654;2023-03-01T22:51:51;96235.25;;;0.97;100.00
62510;BME280;48558;48.242;11.654;2023-03-01T22:56:16;96227.69;;;0.74;100.00
62510;BME280;48558;48.242;11.654;2023-03-01T23:00:31;96239.28;;;0.78;100.00
62510;BME280;48558;48.242;11.654;2023-03-01T23:04:43;96223.19;;;0.50;100.00
62510;BME280;48558;48.242;11.654;2023-03-01T23:09:00;96231.19;;;0.71;100.00
62510;BME280;48558;48.242;11.654;2023-03-01T23:13:13;96216.13;;;0.63;100.00
62510;BME280;48558;48.242;11.654;2023-03-01T23:17:25;96211.97;;;0.44;100.00
62510;BME280;48558;48.242;11.654;2023-03-01T23:21:38;96208.06;;;0.49;100.00
62510;BME280;48558;48.242;11.654;2023-03-01T23:25:55;96216.94;;;0.53;100.00
62510;BME280;48558;48.242;11.654;2023-03-01T23:30:19;96211.16;;;0.51;100.00
62510;BME280;48558;48.242;11.654;2023-03-01T23:34:32;96229.38;;;0.54;100.00
62510;BME280;48558;48.242;11.654;2023-03-01T23:38:46;96225.97;;;0.43;100.00
62510;BME280;48558;48.242;11.654;2023-03-01T23:42:59;96193.41;;;0.32;100.00
62510;BME280;48558;48.242;11.654;2023-03-01T23:47:11;96216.28;;;0.38;100.00
62510;BME280;48558;48.242;11.654;2023-03-01T23:51:24;96231.13;;;0.23;100.00
62510;BME280;48558;48.242;11.654;2023-03-01T23:55:41;96211.13;;;-0.08;100.00
62510;BME280;48558;48.242;11.654;2023-03-01T23:59:57;96216.94;;;-0.06;100.00
